Time;durP1;ratioP1;P1;durP2;ratioP2;P2;SDS_P1;SDS_P2;PMS_P1;PMS_P2;Temp;Humidity;BMP_temperature;BMP_pressure;BME280_temperature;BME280_humidity;BME280_pressure;Samples;Min_cycle;Max_cycle;Signal;HPM_P1;HPM_P2
2023/10/25 00:01:13;;;;;;;2.93;2.50;;;10.00;99.90;;;;;;5082368;28;20661;-75
2023/10/25 00:03:40;;;;;;;2.43;1.90;;;9.90;99.90;;;;;;5086024;28;20613;-75
2023/10/25 00:06:07;;;;;;;2.30;2.10;;;9.90;99.90;;;;;;5084464;28;20620;-76
2023/10/25 00:08:34;;;;;;;3.07;2.20;;;9.90;99.90;;;;;;5085304;28;20633;-76
2023/10/25 00:11:03;;;;;;;2.30;1.67;;;9.90;99.90;;;;;;5078728;28;20669;-75
2023/10/25 00:13:32;;;;;;;2.60;1.70;;;9.90;99.90;;;;;;5082155;28;20631;-75
2023/10/25 00:15:59;;;;;;;2.13;1.93;;;9.80;99.90;;;;;;5085996;28;20664;-75
2023/10/25 00:18:27;;;;;;;6.40;1.77;;;9.70;99.90;;;;;;5085037;28;20998;-76
2023/10/25 00:20:54;;;;;;;1.37;1.27;;;9.70;99.90;;;;;;5084130;28;21247;-75
2023/10/25 00:23:21;;;;;;;2.23;2.07;;;9.60;99.90;;;;;;5085196;28;21022;-75
2023/10/25 00:25:49;;;;;;;1.90;1.80;;;9.60;99.90;;;;;;5085756;28;20625;-75
2023/10/25 00:28:16;;;;;;;1.90;1.60;;;9.60;99.90;;;;;;5082244;28;20713;-76
2023/10/25 00:30:44;;;;;;;2.10;1.90;;;9.70;99.90;;;;;;5084143;28;20622;-75
2023/10/25 00:33:11;;;;;;;2.73;2.50;;;9.70;99.90;;;;;;5085373;28;20625;-76
2023/10/25 00:35:38;;;;;;;1.83;1.50;;;9.70;99.90;;;;;;5085486;28;20620;-76
2023/10/25 00:38:05;;;;;;;2.30;2.10;;;9.80;99.90;;;;;;5084109;28;20687;-75
2023/10/25 00:40:32;;;;;;;2.63;2.13;;;9.70;99.90;;;;;;5084332;28;20675;-75
2023/10/25 00:43:14;;;;;;;2.00;1.90;;;9.70;99.90;;;;;;5084721;28;20632;-76
2023/10/25 00:45:46;;;;;;;3.30;2.37;;;9.80;99.90;;;;;;5083923;28;20618;-76
2023/10/25 00:48:14;;;;;;;1.83;1.70;;;9.70;99.90;;;;;;5082286;28;21256;-75
2023/10/25 00:50:41;;;;;;;1.83;1.63;;;9.80;99.90;;;;;;5085494;28;20619;-75
2023/10/25 00:53:08;;;;;;;2.53;2.10;;;9.80;99.90;;;;;;5084829;28;21017;-76
2023/10/25 00:55:35;;;;;;;3.00;2.60;;;9.80;99.90;;;;;;5082730;28;21209;-75
2023/10/25 00:58:02;;;;;;;2.90;2.70;;;9.80;99.90;;;;;;5089403;28;21075;-75
2023/10/25 01:00:29;;;;;;;2.43;2.23;;;9.90;99.90;;;;;;5089452;28;20771;-75
2023/10/25 01:02:56;;;;;;;2.70;2.50;;;9.80;99.90;;;;;;5087664;28;20633;-76
2023/10/25 01:05:24;;;;;;;2.70;2.50;;;9.90;99.90;;;;;;5086105;28;20663;-75
2023/10/25 01:07:51;;;;;;;2.00;1.90;;;9.90;99.90;;;;;;5085507;28;20620;-76
2023/10/25 01:10:18;;;;;;;4.60;2.63;;;9.90;99.90;;;;;;5087899;28;20678;-75
2023/10/25 01:12:46;;;;;;;2.03;1.93;;;9.90;99.90;;;;;;5089705;28;20676;-76
2023/10/25 01:15:14;;;;;;;2.53;2.33;;;9.90;99.90;;;;;;5089045;28;20648;-76
2023/10/25 01:17:40;;;;;;;2.70;2.50;;;9.90;99.90;;;;;;5084184;28;20617;-74
2023/10/25 01:20:09;;;;;;;3.97;2.53;;;9.80;99.90;;;;;;5089494;28;20696;-75
2023/10/25 01:22:38;;;;;;;2.93;2.60;;;9.80;99.90;;;;;;5088896;28;22213;-75
2023/10/25 01:25:07;;;;;;;3.60;3.30;;;9.80;99.90;;;;;;5088627;28;20866;-75
2023/10/25 01:27:35;;;;;;;2.90;2.57;;;9.80;99.90;;;;;;5086551;28;20704;-75
2023/10/25 01:30:04;;;;;;;2.20;2.00;;;9.80;99.90;;;;;;5088541;28;20629;-75
2023/10/25 01:32:32;;;;;;;2.83;2.53;;;9.80;99.90;;;;;;5083539;28;20723;-75
2023/10/25 01:35:00;;;;;;;3.03;2.83;;;9.70;99.90;;;;;;5086257;28;21269;-75
2023/10/25 01:37:28;;;;;;;6.03;2.57;;;9.60;99.90;;;;;;5087785;28;20628;-75
2023/10/25 01:39:58;;;;;;;9.47;2.93;;;9.70;99.90;;;;;;5087022;28;21100;-76
2023/10/25 01:42:26;;;;;;;2.30;2.00;;;9.60;99.90;;;;;;5088863;28;20723;-75
2023/10/25 01:44:54;;;;;;;2.60;2.10;;;9.60;99.90;;;;;;5085425;28;20624;-75
2023/10/25 01:47:21;;;;;;;2.40;2.03;;;9.60;99.90;;;;;;5085354;28;20617;-75
2023/10/25 01:49:49;;;;;;;2.20;2.00;;;9.60;99.90;;;;;;5088613;28;20698;-75
2023/10/25 01:52:19;;;;;;;3.33;2.43;;;9.60;99.90;;;;;;5088372;28;20625;-75
2023/10/25 01:54:47;;;;;;;2.73;2.03;;;9.60;99.90;;;;;;5088465;28;21106;-75
2023/10/25 01:57:15;;;;;;;2.70;2.60;;;9.60;99.90;;;;;;5087400;28;20624;-76
2023/10/25 01:59:42;;;;;;;2.60;2.40;;;9.60;99.90;;;;;;5088580;28;21298;-75
2023/10/25 02:02:10;;;;;;;3.60;2.77;;;9.50;99.90;;;;;;5087546;28;20684;-75
2023/10/25 02:04:37;;;;;;;3.30;2.50;;;9.40;99.90;;;;;;5087324;28;21332;-76
2023/10/25 02:07:04;;;;;;;2.70;2.50;;;9.40;99.90;;;;;;5087493;28;20621;-76
2023/10/25 02:09:31;;;;;;;2.47;2.27;;;9.40;99.90;;;;;;5085738;28;20986;-75
2023/10/25 02:11:58;;;;;;;2.70;2.50;;;9.50;99.90;;;;;;5082452;28;20625;-75
2023/10/25 02:14:26;;;;;;;2.97;2.70;;;9.50;99.90;;;;;;5088343;28;20682;-75
2023/10/25 02:16:54;;;;;;;2.80;2.60;;;9.50;99.90;;;;;;5084087;28;20996;-76
2023/10/25 02:19:22;;;;;;;2.30;2.10;;;9.50;99.90;;;;;;5085956;28;20620;-76
2023/10/25 02:21:49;;;;;;;1.87;1.60;;;9.50;99.90;;;;;;5087696;28;20759;-75
2023/10/25 02:24:17;;;;;;;2.30;2.10;;;9.50;99.90;;;;;;5086529;28;21208;-75
2023/10/25 02:26:45;;;;;;;2.60;2.30;;;9.60;99.90;;;;;;5087178;28;20632;-75
2023/10/25 02:29:13;;;;;;;3.17;2.63;;;9.60;99.90;;;;;;5088120;28;20633;-75
2023/10/25 02:31:41;;;;;;;2.63;2.20;;;9.60;99.90;;;;;;5088297;28;20712;-75
2023/10/25 02:34:09;;;;;;;2.70;2.50;;;9.60;99.90;;;;;;5082347;28;20625;-75
2023/10/25 02:36:37;;;;;;;2.53;2.20;;;9.60;99.90;;;;;;5085764;28;20629;-76
2023/10/25 02:39:04;;;;;;;5.43;2.43;;;9.50;99.90;;;;;;5086489;28;21372;-75
2023/10/25 02:41:32;;;;;;;2.80;2.50;;;9.40;99.90;;;;;;5085073;28;21099;-75
2023/10/25 02:44:01;;;;;;;3.37;2.97;;;9.40;99.90;;;;;;5086579;28;20625;-75
2023/10/25 02:46:28;;;;;;;2.13;1.70;;;9.30;99.90;;;;;;5084802;28;20652;-75
2023/10/25 02:48:57;;;;;;;3.27;2.17;;;9.40;99.90;;;;;;5083308;28;20633;-75
2023/10/25 02:51:25;;;;;;;2.83;2.60;;;9.30;99.90;;;;;;5083671;28;20928;-75
2023/10/25 02:53:53;;;;;;;4.20;2.70;;;9.40;99.90;;;;;;5085156;28;20632;-75
2023/10/25 02:56:19;;;;;;;2.80;2.53;;;9.40;99.90;;;;;;5087601;28;20979;-75
2023/10/25 02:58:46;;;;;;;2.90;2.70;;;9.30;99.90;;;;;;5081751;28;21020;-75
2023/10/25 03:01:21;;;;;;;2.00;1.80;;;9.40;99.90;;;;;;5083918;28;20652;-75
2023/10/25 03:03:48;;;;;;;1.90;1.80;;;9.40;99.90;;;;;;5085518;28;20628;-75
2023/10/25 03:06:19;;;;;;;3.10;2.80;;;9.40;99.90;;;;;;5087283;28;21192;-75
2023/10/25 03:08:46;;;;;;;2.20;1.80;;;9.50;99.90;;;;;;5084263;28;20640;-76
2023/10/25 03:11:13;;;;;;;2.17;1.97;;;9.40;99.90;;;;;;5087172;28;20625;-75
2023/10/25 03:13:39;;;;;;;2.80;2.30;;;9.30;99.90;;;;;;5086857;28;20636;-76
2023/10/25 03:16:06;;;;;;;2.00;1.90;;;9.30;99.90;;;;;;5086939;28;20621;-75
2023/10/25 03:18:33;;;;;;;3.07;2.03;;;9.50;99.90;;;;;;5082429;28;20631;-75
2023/10/25 03:21:04;;;;;;;2.33;2.13;;;9.70;99.90;;;;;;5086052;28;20675;-75
2023/10/25 03:23:32;;;;;;;2.00;1.80;;;9.60;99.90;;;;;;5083787;28;20740;-75
2023/10/25 03:26:04;;;;;;;2.93;2.63;;;9.60;99.90;;;;;;5087131;28;20627;-76
2023/10/25 03:28:31;;;;;;;2.13;1.93;;;9.70;99.90;;;;;;5084795;28;20617;-75
2023/10/25 03:30:58;;;;;;;2.27;2.07;;;9.70;99.90;;;;;;5086627;28;20629;-76
2023/10/25 03:33:25;;;;;;;2.90;2.30;;;9.70;99.90;;;;;;5086994;28;20613;-75
2023/10/25 03:35:53;;;;;;;3.10;2.83;;;9.70;99.90;;;;;;5079367;28;20724;-76
2023/10/25 03:38:20;;;;;;;1.90;1.77;;;9.70;99.90;;;;;;5078608;28;20628;-75
2023/10/25 03:40:48;;;;;;;3.70;2.93;;;9.60;99.90;;;;;;5085105;28;20662;-76
2023/10/25 03:43:15;;;;;;;5.03;2.73;;;9.70;99.90;;;;;;5086766;28;20613;-75
2023/10/25 03:45:41;;;;;;;3.07;2.30;;;9.60;99.90;;;;;;5085781;28;20631;-75
2023/10/25 03:48:08;;;;;;;3.07;2.60;;;9.50;99.90;;;;;;5083749;28;20629;-76
2023/10/25 03:50:37;;;;;;;3.40;2.57;;;9.40;99.90;;;;;;5082089;28;20669;-75
2023/10/25 03:53:04;;;;;;;2.87;2.57;;;9.30;99.90;;;;;;5084923;28;20627;-76
2023/10/25 03:55:31;;;;;;;2.57;2.37;;;9.30;99.90;;;;;;5080132;28;21186;-75
2023/10/25 03:57:59;;;;;;;4.10;3.10;;;9.20;99.90;;;;;;5079608;28;20637;-75
2023/10/25 04:00:26;;;;;;;3.27;2.90;;;9.20;99.90;;;;;;5086430;28;20619;-75
2023/10/25 04:02:53;;;;;;;3.30;3.00;;;9.10;99.90;;;;;;5083446;28;21201;-75
2023/10/25 04:05:20;;;;;;;2.60;2.40;;;9.10;99.90;;;;;;5086739;28;21028;-75
2023/10/25 04:07:50;;;;;;;2.23;2.10;;;9.10;99.90;;;;;;5085518;28;20621;-76
2023/10/25 04:10:17;;;;;;;3.20;2.60;;;9.10;99.90;;;;;;5085837;28;20621;-75
2023/10/25 04:12:44;;;;;;;2.97;2.67;;;9.10;99.90;;;;;;5080808;28;20637;-75
2023/10/25 04:15:12;;;;;;;2.77;2.57;;;8.90;99.90;;;;;;5081892;28;20647;-76
2023/10/25 04:17:39;;;;;;;3.37;3.07;;;8.80;99.90;;;;;;5077787;28;20626;-75
2023/10/25 04:20:07;;;;;;;4.23;3.50;;;8.80;99.90;;;;;;5082828;28;20714;-76
2023/10/25 04:22:35;;;;;;;4.00;2.83;;;8.80;99.90;;;;;;5086348;28;20673;-76
2023/10/25 04:25:03;;;;;;;2.90;2.70;;;8.80;99.90;;;;;;5084201;28;20968;-76
2023/10/25 04:27:30;;;;;;;3.40;3.10;;;8.80;99.90;;;;;;5084563;28;20632;-75
2023/10/25 04:29:57;;;;;;;2.63;2.43;;;8.80;99.90;;;;;;5085326;28;20934;-76
2023/10/25 04:32:25;;;;;;;3.17;2.87;;;8.80;99.90;;;;;;5082419;28;20662;-76
2023/10/25 04:34:52;;;;;;;2.93;2.43;;;8.80;99.90;;;;;;5084894;28;20668;-75
2023/10/25 04:37:19;;;;;;;2.27;2.07;;;8.80;99.90;;;;;;5083292;28;20807;-76
2023/10/25 04:39:45;;;;;;;4.80;3.20;;;8.80;99.90;;;;;;5085532;28;20627;-75
2023/10/25 04:42:12;;;;;;;3.20;2.67;;;8.80;99.90;;;;;;5078311;28;20665;-75
2023/10/25 04:44:39;;;;;;;3.40;3.10;;;8.80;99.90;;;;;;5077022;28;20625;-75
2023/10/25 04:47:06;;;;;;;3.87;3.47;;;8.90;99.90;;;;;;5076578;28;20629;-75
2023/10/25 04:49:37;;;;;;;4.03;3.10;;;8.80;99.90;;;;;;5085515;28;20617;-75
2023/10/25 04:52:04;;;;;;;3.93;3.63;;;8.80;99.90;;;;;;5085727;28;20629;-75
2023/10/25 04:54:31;;;;;;;3.57;3.27;;;8.80;99.90;;;;;;5085780;28;20632;-75
2023/10/25 04:56:58;;;;;;;3.10;2.80;;;8.70;99.90;;;;;;5085386;28;21190;-75
2023/10/25 04:59:25;;;;;;;3.50;2.90;;;8.80;99.90;;;;;;5077219;28;20720;-75
2023/10/25 05:01:51;;;;;;;3.23;2.93;;;8.90;99.90;;;;;;5081273;28;20649;-75
2023/10/25 05:04:18;;;;;;;2.60;2.40;;;9.00;99.90;;;;;;5086374;28;20629;-75
2023/10/25 05:06:47;;;;;;;2.53;2.20;;;9.10;99.90;;;;;;5084636;28;21125;-75
2023/10/25 05:09:14;;;;;;;3.57;2.43;;;9.00;99.90;;;;;;5086579;28;20643;-75
2023/10/25 05:11:46;;;;;;;5.37;3.60;;;9.00;99.90;;;;;;5078154;28;20628;-75
2023/10/25 05:14:14;;;;;;;3.67;3.10;;;8.90;99.90;;;;;;5080694;28;20639;-75
2023/10/25 05:16:41;;;;;;;3.37;2.90;;;8.90;99.90;;;;;;5082477;28;20625;-75
2023/10/25 05:19:09;;;;;;;2.57;2.37;;;8.90;99.90;;;;;;5079497;28;20649;-74
2023/10/25 05:21:40;;;;;;;6.33;2.83;;;8.90;99.90;;;;;;5085654;28;20682;-75
2023/10/25 05:24:09;;;;;;;2.73;2.53;;;8.80;99.90;;;;;;5085903;28;20621;-74
2023/10/25 05:26:37;;;;;;;3.13;2.83;;;8.80;99.90;;;;;;5084966;28;20631;-74
2023/10/25 05:29:04;;;;;;;3.00;2.77;;;8.70;99.90;;;;;;5082171;28;20624;-73
2023/10/25 05:31:35;;;;;;;2.87;2.67;;;8.60;99.90;;;;;;5081649;28;20720;-74
2023/10/25 05:34:02;;;;;;;3.90;3.47;;;8.60;99.90;;;;;;5084881;28;21113;-74
2023/10/25 05:36:30;;;;;;;3.93;3.53;;;8.60;99.90;;;;;;5084890;28;21105;-74
2023/10/25 05:38:57;;;;;;;4.20;3.80;;;8.60;99.90;;;;;;5085185;28;20635;-74
2023/10/25 05:41:28;;;;;;;3.57;3.17;;;8.50;99.90;;;;;;5083417;28;20649;-74
2023/10/25 05:44:02;;;;;;;2.77;2.57;;;8.60;99.90;;;;;;5078261;28;20636;-74
2023/10/25 05:46:30;;;;;;;2.13;2.03;;;8.70;99.90;;;;;;5085785;28;20633;-73
2023/10/25 05:48:57;;;;;;;3.67;3.37;;;8.70;99.90;;;;;;5092379;28;20625;-74
2023/10/25 05:51:24;;;;;;;2.30;2.00;;;8.70;99.90;;;;;;5087139;28;21283;-74
2023/10/25 05:53:52;;;;;;;3.10;2.80;;;8.60;99.90;;;;;;5085923;28;20645;-73
2023/10/25 05:56:24;;;;;;;2.97;2.70;;;8.70;99.90;;;;;;5099175;28;20620;-73
2023/10/25 05:58:52;;;;;;;3.77;2.90;;;8.60;99.90;;;;;;5087713;28;21047;-72
2023/10/25 06:01:26;;;;;;;3.60;3.30;;;8.70;99.90;;;;;;5092870;28;20624;-72
2023/10/25 06:03:57;;;;;;;3.10;2.80;;;8.60;99.90;;;;;;5096725;28;20632;-73
2023/10/25 06:06:26;;;;;;;3.60;2.80;;;8.50;99.90;;;;;;5089735;28;20624;-72
2023/10/25 06:08:53;;;;;;;3.47;2.80;;;8.50;99.90;;;;;;5092685;28;20633;-72
2023/10/25 06:11:20;;;;;;;3.27;2.97;;;8.50;99.90;;;;;;5087595;28;21266;-72
2023/10/25 06:13:48;;;;;;;3.67;3.07;;;8.50;99.90;;;;;;5090202;28;20644;-73
2023/10/25 06:16:16;;;;;;;5.30;4.37;;;8.50;99.90;;;;;;5091152;28;20628;-73
2023/10/25 06:18:43;;;;;;;5.17;4.33;;;8.60;99.90;;;;;;5088683;28;20625;-74
2023/10/25 06:21:09;;;;;;;6.80;5.23;;;8.70;99.90;;;;;;5102588;28;20639;-74
2023/10/25 06:23:36;;;;;;;6.30;4.63;;;8.70;99.90;;;;;;5088948;28;21180;-74
2023/10/25 06:26:03;;;;;;;5.07;4.30;;;8.90;99.90;;;;;;5085745;28;20631;-73
2023/10/25 06:28:30;;;;;;;3.90;3.53;;;9.00;99.90;;;;;;5084679;28;21019;-73
2023/10/25 06:30:57;;;;;;;3.90;3.43;;;9.00;99.90;;;;;;5087658;28;20743;-73
2023/10/25 06:33:26;;;;;;;9.03;4.00;;;9.10;99.90;;;;;;5088155;28;21053;-73
2023/10/25 06:35:53;;;;;;;5.53;4.10;;;9.00;99.90;;;;;;5091180;28;20640;-73
2023/10/25 06:38:20;;;;;;;3.43;3.13;;;9.10;99.90;;;;;;5092206;28;20654;-72
2023/10/25 06:40:48;;;;;;;6.30;3.17;;;9.00;99.90;;;;;;5088282;28;20620;-73
2023/10/25 06:43:15;;;;;;;6.10;3.60;;;9.00;99.90;;;;;;5086894;28;20671;-73
2023/10/25 06:45:42;;;;;;;4.50;3.60;;;9.00;99.90;;;;;;5093002;28;20723;-75
2023/10/25 06:48:10;;;;;;;3.60;3.30;;;9.00;99.90;;;;;;5090558;28;20628;-74
2023/10/25 06:50:39;;;;;;;6.50;3.97;;;9.10;99.90;;;;;;5087887;28;20631;-73
2023/10/25 06:53:06;;;;;;;5.87;4.70;;;9.10;99.90;;;;;;5090308;28;20750;-73
2023/10/25 06:55:34;;;;;;;3.83;3.43;;;9.10;99.90;;;;;;5087550;28;20627;-72
2023/10/25 06:58:02;;;;;;;4.30;3.50;;;9.20;99.90;;;;;;5092125;28;20780;-73
2023/10/25 07:00:30;;;;;;;4.10;3.80;;;9.30;99.90;;;;;;5091438;28;20641;-73
2023/10/25 07:03:02;;;;;;;6.67;4.53;;;9.30;99.90;;;;;;5089863;28;20678;-73
2023/10/25 07:05:30;;;;;;;5.07;4.57;;;9.30;99.90;;;;;;5086370;28;21493;-73
2023/10/25 07:07:59;;;;;;;3.93;3.60;;;9.30;99.90;;;;;;5087159;28;20994;-74
2023/10/25 07:10:26;;;;;;;5.23;3.73;;;9.40;99.90;;;;;;5087616;28;20643;-73
2023/10/25 07:12:53;;;;;;;5.80;4.73;;;9.50;99.90;;;;;;5092274;28;20624;-73
2023/10/25 07:15:20;;;;;;;13.00;8.10;;;9.60;99.90;;;;;;5090347;28;20648;-73
2023/10/25 07:17:49;;;;;;;5.43;4.70;;;9.60;99.90;;;;;;5086957;28;20621;-73
2023/10/25 07:20:16;;;;;;;4.33;3.93;;;9.60;99.90;;;;;;5094027;28;20625;-73
2023/10/25 07:22:43;;;;;;;2.50;2.30;;;9.70;99.90;;;;;;5087337;28;20671;-73
2023/10/25 07:25:11;;;;;;;4.80;4.40;;;9.80;99.90;;;;;;5079773;28;20635;-73
2023/10/25 07:27:38;;;;;;;3.97;3.60;;;9.80;99.90;;;;;;5083884;28;21183;-73
2023/10/25 07:30:06;;;;;;;6.03;4.63;;;10.00;99.90;;;;;;5086905;28;20735;-73
2023/10/25 07:32:35;;;;;;;4.50;4.10;;;10.10;99.90;;;;;;5088373;28;20629;-77
2023/10/25 07:35:01;;;;;;;4.93;4.43;;;10.10;99.90;;;;;;5089443;28;20636;-77
2023/10/25 07:37:28;;;;;;;5.17;4.20;;;10.30;99.90;;;;;;5091299;28;21076;-76
2023/10/25 07:39:55;;;;;;;6.80;4.73;;;10.30;99.90;;;;;;5085704;28;20625;-75
2023/10/25 07:42:24;;;;;;;4.20;3.80;;;10.40;99.90;;;;;;5086800;28;21254;-75
2023/10/25 07:44:50;;;;;;;4.97;3.60;;;10.50;99.90;;;;;;5081453;28;21208;-75
2023/10/25 07:47:19;;;;;;;6.03;5.43;;;10.60;99.90;;;;;;5087524;28;21228;-75
2023/10/25 07:49:46;;;;;;;4.63;4.23;;;10.70;99.90;;;;;;5084742;28;20629;-75
2023/10/25 07:52:13;;;;;;;5.47;3.87;;;10.70;99.90;;;;;;5093261;28;20669;-75
2023/10/25 07:54:40;;;;;;;6.40;4.60;;;10.70;99.90;;;;;;5094992;28;20642;-75
2023/10/25 07:57:06;;;;;;;4.30;3.90;;;10.70;99.90;;;;;;5088100;28;20629;-75
2023/10/25 07:59:36;;;;;;;4.60;4.20;;;10.80;99.90;;;;;;5088061;28;20627;-74
2023/10/25 08:02:03;;;;;;;5.80;4.60;;;10.70;99.90;;;;;;5083391;28;21269;-75
2023/10/25 08:04:29;;;;;;;5.60;4.43;;;10.60;99.90;;;;;;5085065;28;21355;-75
2023/10/25 08:06:56;;;;;;;4.40;3.70;;;10.60;99.90;;;;;;5086188;28;20752;-75
2023/10/25 08:09:23;;;;;;;4.17;3.70;;;10.60;99.90;;;;;;5080324;28;21041;-75
2023/10/25 08:11:50;;;;;;;3.73;3.40;;;10.70;99.90;;;;;;5086228;28;21019;-75
2023/10/25 08:14:17;;;;;;;4.77;3.93;;;10.70;99.90;;;;;;5085447;28;20617;-74
2023/10/25 08:16:46;;;;;;;3.97;3.67;;;10.70;99.90;;;;;;5085604;28;20635;-76
2023/10/25 08:19:12;;;;;;;4.43;3.30;;;10.90;99.90;;;;;;5083798;28;20621;-74
2023/10/25 08:21:40;;;;;;;3.40;3.10;;;11.10;99.90;;;;;;5086517;28;20731;-75
2023/10/25 08:24:07;;;;;;;3.20;3.00;;;11.10;99.90;;;;;;5085188;28;20664;-75
2023/10/25 08:26:38;;;;;;;4.10;3.63;;;11.10;99.90;;;;;;5085528;28;21050;-77
2023/10/25 08:29:05;;;;;;;4.20;3.80;;;11.20;99.90;;;;;;5086377;28;20637;-76
2023/10/25 08:31:32;;;;;;;4.10;3.80;;;11.20;99.90;;;;;;5086077;28;21093;-76
2023/10/25 08:34:00;;;;;;;3.90;3.33;;;11.30;99.90;;;;;;5086042;28;20736;-75
2023/10/25 08:36:28;;;;;;;4.70;4.30;;;11.30;99.90;;;;;;5085215;28;20625;-76
2023/10/25 08:38:55;;;;;;;3.80;3.47;;;11.40;99.90;;;;;;5085840;28;20665;-75
2023/10/25 08:41:25;;;;;;;4.10;3.70;;;11.50;99.90;;;;;;5082844;28;20660;-75
2023/10/25 08:43:52;;;;;;;5.00;3.90;;;11.50;99.90;;;;;;5085498;28;21162;-75
2023/10/25 08:46:20;;;;;;;4.20;3.80;;;11.50;99.90;;;;;;5089357;28;20659;-75
2023/10/25 08:48:47;;;;;;;4.40;3.77;;;11.50;99.90;;;;;;5087791;28;21291;-76
2023/10/25 08:51:16;;;;;;;5.10;3.53;;;11.50;99.90;;;;;;5092936;28;20622;-76
2023/10/25 08:53:43;;;;;;;4.13;3.73;;;11.60;99.90;;;;;;5085374;28;20987;-76
2023/10/25 08:56:10;;;;;;;7.30;3.90;;;11.60;99.90;;;;;;5085649;28;20799;-76
2023/10/25 08:58:36;;;;;;;3.97;3.00;;;11.60;99.90;;;;;;5084638;28;20628;-75
2023/10/25 09:01:03;;;;;;;3.47;3.17;;;11.50;99.90;;;;;;5082726;28;20739;-75
2023/10/25 09:03:43;;;;;;;3.47;3.13;;;11.60;99.90;;;;;;5084395;28;20683;-75
2023/10/25 09:06:11;;;;;;;3.40;3.10;;;11.60;99.90;;;;;;5083187;28;20720;-76
2023/10/25 09:08:39;;;;;;;4.50;3.93;;;11.60;99.90;;;;;;5083861;28;21049;-75
2023/10/25 09:11:08;;;;;;;3.67;3.37;;;11.60;99.90;;;;;;5091628;28;20621;-76
2023/10/25 09:13:37;;;;;;;5.40;3.53;;;11.50;99.90;;;;;;5093207;28;20717;-76
2023/10/25 09:16:06;;;;;;;3.40;2.80;;;11.60;99.90;;;;;;5087967;28;21208;-75
2023/10/25 09:18:34;;;;;;;3.63;2.97;;;11.60;99.90;;;;;;5089807;28;20637;-75
2023/10/25 09:21:02;;;;;;;3.37;3.07;;;11.70;99.90;;;;;;5103462;28;20628;-76
2023/10/25 09:23:29;;;;;;;4.07;3.77;;;11.70;99.90;;;;;;5097889;28;20664;-76
2023/10/25 09:25:59;;;;;;;3.30;3.00;;;11.70;99.90;;;;;;5089564;28;20624;-73
2023/10/25 09:28:28;;;;;;;4.53;4.13;;;11.60;99.90;;;;;;5088602;28;20632;-74
2023/10/25 09:30:55;;;;;;;3.43;3.13;;;11.60;99.90;;;;;;5085625;28;20625;-76
2023/10/25 09:33:22;;;;;;;3.53;3.17;;;11.60;99.90;;;;;;5091613;28;20640;-76
2023/10/25 09:35:50;;;;;;;2.90;2.60;;;11.60;99.90;;;;;;5092260;28;20768;-75
2023/10/25 09:38:17;;;;;;;4.27;3.90;;;11.60;99.90;;;;;;5089949;28;21544;-74
2023/10/25 09:40:45;;;;;;;3.77;3.47;;;11.60;99.90;;;;;;5088764;28;20719;-75
2023/10/25 09:43:16;;;;;;;4.83;4.20;;;11.60;99.90;;;;;;5087116;28;20668;-76
2023/10/25 09:45:45;;;;;;;4.40;3.60;;;11.60;99.90;;;;;;5093677;28;20637;-74
2023/10/25 09:48:15;;;;;;;3.60;3.30;;;11.70;99.90;;;;;;5087965;28;20631;-74
2023/10/25 09:50:48;;;;;;;5.77;4.40;;;11.70;99.90;;;;;;5091467;28;20635;-74
2023/10/25 09:53:27;;;;;;;3.33;3.03;;;11.80;99.90;;;;;;5088608;28;20613;-74
2023/10/25 09:56:02;;;;;;;2.53;2.33;;;11.90;99.90;;;;;;5085656;28;21262;-74
2023/10/25 09:58:33;;;;;;;2.40;2.20;;;12.00;99.90;;;;;;5084635;28;20632;-74
2023/10/25 10:01:00;;;;;;;2.60;2.40;;;12.10;99.90;;;;;;5085939;28;21066;-74
2023/10/25 10:03:34;;;;;;;4.33;3.30;;;12.20;99.90;;;;;;5088648;28;21231;-73
2023/10/25 10:06:10;;;;;;;3.30;3.00;;;12.40;99.90;;;;;;5094140;28;20678;-74
2023/10/25 10:08:44;;;;;;;2.60;2.40;;;12.40;99.90;;;;;;5095182;28;21199;-74
2023/10/25 10:11:15;;;;;;;3.17;2.80;;;12.50;99.90;;;;;;5101882;28;20609;-74
2023/10/25 10:13:43;;;;;;;2.33;2.17;;;12.50;99.90;;;;;;5089040;28;20641;-74
2023/10/25 10:16:11;;;;;;;3.40;3.10;;;12.70;99.90;;;;;;5096362;28;20807;-74
2023/10/25 10:18:39;;;;;;;2.27;1.93;;;12.80;99.90;;;;;;5093529;28;21211;-75
2023/10/25 10:21:07;;;;;;;2.13;2.03;;;12.80;99.90;;;;;;5083915;28;20635;-75
2023/10/25 10:23:39;;;;;;;2.77;2.20;;;12.80;99.90;;;;;;5094177;28;20675;-74
2023/10/25 10:26:07;;;;;;;2.63;2.17;;;12.80;99.90;;;;;;5087857;28;20639;-73
2023/10/25 10:28:41;;;;;;;2.20;2.00;;;12.80;99.90;;;;;;5086814;28;20756;-74
2023/10/25 10:31:10;;;;;;;2.87;2.60;;;12.80;99.90;;;;;;5088354;28;20629;-75
2023/10/25 10:33:44;;;;;;;3.30;2.83;;;12.80;99.90;;;;;;5088221;28;20621;-75
2023/10/25 10:36:11;;;;;;;2.60;2.33;;;12.80;99.90;;;;;;5087992;28;20629;-72
2023/10/25 10:39:13;;;;;;;3.80;2.00;;;13.00;99.90;;;;;;5087976;28;20628;-74
2023/10/25 10:41:40;;;;;;;5.27;3.43;;;12.90;99.90;;;;;;5086132;28;20707;-73
2023/10/25 10:44:08;;;;;;;5.67;3.53;;;13.00;99.90;;;;;;5090133;28;20660;-74
2023/10/25 10:46:44;;;;;;;10.47;5.27;;;13.10;99.90;;;;;;5086570;28;20656;-75
2023/10/25 10:49:12;;;;;;;12.87;6.63;;;13.20;99.90;;;;;;5091489;28;21043;-75
2023/10/25 10:51:39;;;;;;;7.23;4.80;;;13.20;99.90;;;;;;5090215;28;20620;-77
2023/10/25 10:54:06;;;;;;;1.70;1.60;;;13.30;99.90;;;;;;5081979;28;20853;-76
2023/10/25 10:56:34;;;;;;;2.30;2.10;;;13.40;99.90;;;;;;5092858;28;20633;-76
2023/10/25 10:59:01;;;;;;;1.70;1.50;;;13.40;99.90;;;;;;5095673;28;20635;-79
2023/10/25 11:01:28;;;;;;;2.73;1.90;;;13.40;99.90;;;;;;5091462;28;20980;-76
2023/10/25 11:03:59;;;;;;;2.03;1.80;;;13.40;99.90;;;;;;5087562;28;20704;-76
2023/10/25 11:06:26;;;;;;;1.80;1.70;;;13.40;99.90;;;;;;5079985;28;20652;-77
2023/10/25 11:08:53;;;;;;;2.27;1.83;;;13.40;99.90;;;;;;5085072;28;20728;-78
2023/10/25 11:11:21;;;;;;;2.23;2.03;;;13.40;99.90;;;;;;5086781;28;20987;-77
2023/10/25 11:13:49;;;;;;;1.40;1.30;;;13.40;99.90;;;;;;5087029;28;21032;-78
2023/10/25 11:16:16;;;;;;;1.40;1.10;;;13.40;99.90;;;;;;5087133;28;20663;-77
2023/10/25 11:18:43;;;;;;;2.13;1.53;;;13.40;99.90;;;;;;5093520;28;20650;-77
2023/10/25 11:21:12;;;;;;;1.93;1.60;;;13.60;99.90;;;;;;5088256;28;20679;-75
2023/10/25 11:23:39;;;;;;;2.30;1.87;;;13.70;99.90;;;;;;5092488;28;20659;-74
2023/10/25 11:26:06;;;;;;;2.00;1.23;;;13.80;99.90;;;;;;5086137;28;21580;-75
2023/10/25 11:28:33;;;;;;;1.83;1.63;;;13.90;99.90;;;;;;5086333;28;20629;-73
2023/10/25 11:31:03;;;;;;;1.20;1.10;;;14.00;99.90;;;;;;5088231;28;20992;-72
2023/10/25 11:33:30;;;;;;;1.43;1.27;;;14.00;99.90;;;;;;5088384;28;20625;-73
2023/10/25 11:35:57;;;;;;;1.90;1.80;;;14.10;99.90;;;;;;5089885;28;20636;-73
2023/10/25 11:38:26;;;;;;;1.20;1.10;;;14.20;99.90;;;;;;5087915;28;21155;-73
2023/10/25 11:40:53;;;;;;;1.20;1.10;;;14.30;99.90;;;;;;5082180;28;20687;-73
2023/10/25 11:43:20;;;;;;;2.73;1.37;;;14.30;99.90;;;;;;5090997;28;20668;-73
2023/10/25 11:45:47;;;;;;;1.27;1.13;;;14.40;99.90;;;;;;5086395;28;21184;-72
2023/10/25 11:48:14;;;;;;;1.93;1.20;;;14.40;99.90;;;;;;5086432;28;20643;-72
2023/10/25 11:50:46;;;;;;;2.23;1.87;;;14.60;99.90;;;;;;5085826;28;21173;-72
2023/10/25 11:53:14;;;;;;;1.33;1.23;;;14.70;99.90;;;;;;5090793;28;20621;-72
2023/10/25 11:55:42;;;;;;;1.37;1.27;;;14.80;99.90;;;;;;5086329;28;20641;-72
2023/10/25 11:58:15;;;;;;;0.97;0.97;;;14.90;99.90;;;;;;5089648;28;20631;-73
2023/10/25 12:00:42;;;;;;;1.30;1.20;;;15.00;99.90;;;;;;5092675;28;21205;-72
2023/10/25 12:03:08;;;;;;;2.87;1.10;;;15.00;99.90;;;;;;5095864;28;20932;-72
2023/10/25 12:05:35;;;;;;;1.23;1.17;;;14.90;99.90;;;;;;5099675;28;20632;-73
2023/10/25 12:08:04;;;;;;;1.30;1.20;;;14.90;99.90;;;;;;5097650;28;20634;-72
2023/10/25 12:10:31;;;;;;;1.73;1.13;;;14.90;99.90;;;;;;5086432;28;20666;-73
2023/10/25 12:12:59;;;;;;;2.77;2.30;;;15.10;99.90;;;;;;5085271;28;20647;-73
2023/10/25 12:15:26;;;;;;;1.10;1.00;;;15.00;99.90;;;;;;5081290;28;20647;-72
2023/10/25 12:17:54;;;;;;;1.10;1.00;;;14.90;99.90;;;;;;5086974;28;20740;-73
2023/10/25 12:20:20;;;;;;;1.07;1.00;;;14.90;99.90;;;;;;5082176;28;21099;-73
2023/10/25 12:22:48;;;;;;;0.90;0.90;;;14.90;99.90;;;;;;5088025;28;20625;-72
2023/10/25 12:25:15;;;;;;;2.83;0.97;;;14.90;99.90;;;;;;5085883;28;20684;-72
2023/10/25 12:27:42;;;;;;;1.20;0.90;;;14.90;99.90;;;;;;5086767;28;20620;-70
2023/10/25 12:30:11;;;;;;;0.60;0.60;;;15.00;99.90;;;;;;5082140;28;20666;-71
2023/10/25 12:32:38;;;;;;;0.70;0.70;;;15.00;99.90;;;;;;5085305;28;20629;-71
2023/10/25 12:35:06;;;;;;;0.80;0.80;;;14.90;99.90;;;;;;5089151;28;21073;-72
2023/10/25 12:37:33;;;;;;;2.77;1.00;;;15.00;99.90;;;;;;5078446;28;20634;-72
2023/10/25 12:39:59;;;;;;;0.77;0.77;;;15.10;99.90;;;;;;5089883;28;20639;-72
2023/10/25 12:42:26;;;;;;;1.43;1.30;;;15.20;99.90;;;;;;5086431;28;21091;-71
2023/10/25 12:44:54;;;;;;;6.50;1.57;;;15.20;99.90;;;;;;5088649;28;20674;-72
2023/10/25 12:47:23;;;;;;;0.90;0.90;;;15.10;99.90;;;;;;5086484;28;20628;-72
2023/10/25 12:49:51;;;;;;;1.00;1.00;;;15.00;99.90;;;;;;5085468;28;20637;-72
2023/10/25 12:52:18;;;;;;;0.80;0.77;;;15.00;99.90;;;;;;5085095;28;20729;-72
2023/10/25 12:54:44;;;;;;;0.97;0.70;;;14.80;99.90;;;;;;5085556;28;20698;-72
2023/10/25 12:57:11;;;;;;;0.97;0.97;;;14.80;99.90;;;;;;5085093;28;20617;-71